Time;durP1;ratioP1;P1;durP2;ratioP2;P2;SDS_P1;SDS_P2;PMS_P1;PMS_P2;Temp;Humidity;BMP_temperature;BMP_pressure;BME280_temperature;BME280_humidity;BME280_pressure;Samples;Min_cycle;Max_cycle;Signal;HPM_P1;HPM_P2
2021/03/03 00:01:26;;;;;;;24.02;12.23;;;52.00;2227.20;;;;;;5099845;28;20106;-68
2021/03/03 00:03:51;;;;;;;26.80;12.75;;;51.90;2227.20;;;;;;5099539;28;20365;-68
2021/03/03 00:06:18;;;;;;;22.75;11.32;;;51.80;2227.20;;;;;;5099414;28;20365;-67
2021/03/03 00:08:43;;;;;;;22.10;12.15;;;51.70;2227.20;;;;;;5099415;28;20050;-68
2021/03/03 00:11:09;;;;;;;25.95;12.30;;;51.80;2227.20;;;;;;5099261;28;20036;-67
2021/03/03 00:13:35;;;;;;;23.15;12.50;;;51.90;2227.20;;;;;;5099621;28;20073;-68
2021/03/03 00:16:01;;;;;;;24.95;13.63;;;51.90;2227.20;;;;;;5098860;28;20051;-67
2021/03/03 00:18:26;;;;;;;27.33;14.18;;;51.80;2227.20;;;;;;5099399;28;20024;-67
2021/03/03 00:20:52;;;;;;;28.20;15.80;;;51.80;2227.20;;;;;;5099413;28;20115;-68
2021/03/03 00:23:18;;;;;;;25.25;14.57;;;51.70;2227.20;;;;;;5098545;28;20036;-68
2021/03/03 00:25:43;;;;;;;32.25;16.52;;;51.50;2227.20;;;;;;5099347;28;20016;-68
2021/03/03 00:28:09;;;;;;;30.15;17.08;;;51.50;2227.20;;;;;;5098718;28;20103;-68
2021/03/03 00:30:35;;;;;;;31.25;15.98;;;51.40;2227.20;;;;;;5098856;28;20047;-68
2021/03/03 00:33:01;;;;;;;30.48;15.40;;;51.40;2227.20;;;;;;5098472;28;20059;-68
2021/03/03 00:35:26;;;;;;;30.58;14.85;;;51.30;2227.20;;;;;;5098764;28;20081;-68
2021/03/03 00:37:52;;;;;;;27.75;15.15;;;51.30;2227.20;;;;;;5098328;28;20387;-67
2021/03/03 00:40:18;;;;;;;30.17;14.68;;;51.40;2227.20;;;;;;5088101;28;20056;-68
2021/03/03 00:42:44;;;;;;;30.85;14.40;;;51.40;2227.20;;;;;;5078402;28;20056;-68
2021/03/03 00:45:10;;;;;;;30.42;15.73;;;51.40;2227.20;;;;;;5078637;28;20029;-67
2021/03/03 00:47:36;;;;;;;45.38;23.15;;;51.50;2227.20;;;;;;5078391;28;20020;-68
2021/03/03 00:50:06;;;;;;;31.00;18.60;;;51.50;2227.20;;;;;;5078146;28;20052;-68
2021/03/03 00:52:32;;;;;;;23.58;12.70;;;51.50;2227.20;;;;;;5078878;28;20024;-67
2021/03/03 00:54:57;;;;;;;22.65;12.50;;;51.50;2227.20;;;;;;5078774;28;20077;-68
2021/03/03 00:57:23;;;;;;;25.58;12.57;;;51.60;2227.20;;;;;;5077949;28;20055;-68
2021/03/03 00:59:49;;;;;;;21.67;12.30;;;51.60;2227.20;;;;;;5078480;28;20028;-68
2021/03/03 01:02:15;;;;;;;25.17;12.88;;;51.50;2227.20;;;;;;5078340;28;20060;-68
2021/03/03 01:04:40;;;;;;;23.50;12.43;;;51.50;2227.20;;;;;;5078179;28;20052;-68
2021/03/03 01:07:06;;;;;;;25.38;12.85;;;51.60;2227.20;;;;;;5077719;28;20531;-68
2021/03/03 01:09:32;;;;;;;22.13;11.57;;;51.60;2227.20;;;;;;5077587;28;20111;-67
2021/03/03 01:11:57;;;;;;;23.15;11.77;;;51.50;2227.20;;;;;;5077470;28;20063;-68
2021/03/03 01:14:23;;;;;;;22.25;11.90;;;51.40;2227.20;;;;;;5077670;28;20027;-68
2021/03/03 01:16:52;;;;;;;21.30;11.38;;;51.30;2227.20;;;;;;5078064;28;20035;-69
2021/03/03 01:19:17;;;;;;;26.77;12.57;;;51.30;2227.20;;;;;;5077553;28;20041;-68
2021/03/03 01:21:43;;;;;;;24.83;12.60;;;51.20;2227.20;;;;;;5077860;28;20246;-68
2021/03/03 01:24:10;;;;;;;27.15;13.48;;;51.30;2227.20;;;;;;5078209;28;20028;-67
2021/03/03 01:26:36;;;;;;;28.45;13.55;;;51.30;2227.20;;;;;;5077875;28;20056;-68
2021/03/03 01:29:02;;;;;;;25.75;13.45;;;51.40;2227.20;;;;;;5078015;28;20362;-68
2021/03/03 01:31:28;;;;;;;26.98;14.38;;;51.30;2227.20;;;;;;5077479;28;20118;-68
2021/03/03 01:33:54;;;;;;;23.42;13.05;;;51.40;2227.20;;;;;;5077376;28;20059;-67
2021/03/03 01:36:20;;;;;;;26.77;13.32;;;51.40;2227.20;;;;;;5077003;28;20040;-68
2021/03/03 01:38:45;;;;;;;27.85;13.05;;;51.40;2227.20;;;;;;5077263;28;20105;-67
2021/03/03 01:41:11;;;;;;;26.08;13.65;;;51.30;2227.20;;;;;;5077415;28;20326;-69
2021/03/03 01:43:37;;;;;;;27.48;13.73;;;51.30;2227.20;;;;;;5076820;28;20303;-67
2021/03/03 01:46:03;;;;;;;27.15;14.55;;;51.30;2227.20;;;;;;5077254;28;20107;-68
2021/03/03 01:48:28;;;;;;;26.38;13.55;;;51.20;2227.20;;;;;;5077367;28;20025;-68
2021/03/03 01:50:54;;;;;;;26.50;13.63;;;51.30;2227.20;;;;;;5077403;28;20057;-68
2021/03/03 01:53:20;;;;;;;27.58;13.70;;;51.30;2227.20;;;;;;5077185;28;20081;-67
2021/03/03 01:55:46;;;;;;;25.92;13.57;;;51.30;2227.20;;;;;;5077437;28;20024;-68
2021/03/03 01:58:12;;;;;;;23.83;12.55;;;51.20;2227.20;;;;;;5077082;28;20032;-68
2021/03/03 02:00:38;;;;;;;21.60;12.23;;;51.20;2227.20;;;;;;5077373;28;20025;-68
2021/03/03 02:03:04;;;;;;;27.00;13.25;;;26.50;2201.60;;;;;;5076918;28;20107;-68
2021/03/03 02:05:30;;;;;;;24.25;13.30;;;26.50;2201.60;;;;;;5077557;28;20035;-68
2021/03/03 02:08:11;;;;;;;27.45;15.23;;;26.40;2201.60;;;;;;5077057;28;20025;-68
2021/03/03 02:10:39;;;;;;;28.45;14.00;;;26.40;2201.60;;;;;;5077245;28;20033;-68
2021/03/03 02:13:11;;;;;;;25.55;14.23;;;26.50;2201.60;;;;;;5077555;28;20030;-68
2021/03/03 02:15:40;;;;;;;29.98;15.48;;;26.50;2201.60;;;;;;5076667;28;20024;-68
2021/03/03 02:18:09;;;;;;;27.30;14.82;;;51.20;2227.20;;;;;;5077154;28;20122;-68
2021/03/03 02:20:49;;;;;;;28.20;13.93;;;51.20;2227.20;;;;;;5077225;28;20039;-68
2021/03/03 02:23:39;;;;;;;28.23;15.63;;;51.20;2227.20;;;;;;5077434;28;20025;-68
2021/03/03 02:26:05;;;;;;;30.40;16.30;;;51.20;2227.20;;;;;;5069254;28;20028;-68
2021/03/03 02:28:32;;;;;;;32.38;16.63;;;51.20;2227.20;;;;;;5076587;28;20033;-67
2021/03/03 02:30:59;;;;;;;30.20;16.52;;;51.20;2227.20;;;;;;5076238;28;20039;-67
2021/03/03 02:33:25;;;;;;;35.42;16.27;;;51.30;2227.20;;;;;;5076126;28;20115;-68
2021/03/03 02:35:52;;;;;;;32.25;15.15;;;51.40;2227.20;;;;;;5075519;28;20446;-68
2021/03/03 02:38:19;;;;;;;27.98;14.88;;;51.30;2227.20;;;;;;5075765;28;20299;-68
2021/03/03 02:40:46;;;;;;;26.40;13.52;;;51.40;2227.20;;;;;;5076025;28;20029;-68
2021/03/03 02:43:14;;;;;;;30.40;13.07;;;51.30;2227.20;;;;;;5076651;28;20111;-68
2021/03/03 02:45:41;;;;;;;23.30;13.13;;;51.20;2227.20;;;;;;5076881;28;20029;-68
2021/03/03 02:48:08;;;;;;;27.25;13.35;;;26.50;2201.60;;;;;;5076674;28;20029;-68
2021/03/03 02:50:34;;;;;;;24.73;12.35;;;26.30;2201.60;;;;;;5076875;28;20083;-68
2021/03/03 02:53:00;;;;;;;28.30;13.65;;;26.20;2201.60;;;;;;5076532;28;20032;-67
2021/03/03 02:55:27;;;;;;;31.58;15.60;;;26.00;2201.60;;;;;;5078679;28;20436;-67
2021/03/03 02:57:54;;;;;;;40.13;19.90;;;26.10;2201.60;;;;;;5079030;28;20433;-68
2021/03/03 03:00:23;;;;;;;38.90;20.88;;;25.90;2201.60;;;;;;5079228;28;20451;-68
2021/03/03 03:02:52;;;;;;;43.83;20.88;;;25.80;2201.60;;;;;;5079435;28;20103;-68
2021/03/03 03:05:19;;;;;;;43.50;21.77;;;25.70;2201.60;;;;;;5080355;28;20032;-67
2021/03/03 03:07:49;;;;;;;49.85;22.90;;;25.60;2201.60;;;;;;5080787;28;20111;-67
2021/03/03 03:10:18;;;;;;;46.85;21.38;;;0.90;2201.60;;;;;;5079944;28;20035;-68
2021/03/03 03:12:48;;;;;;;44.50;21.05;;;0.80;2201.60;;;;;;5080702;28;20074;-68
2021/03/03 03:15:17;;;;;;;40.90;19.88;;;0.70;2201.60;;;;;;5080279;28;20031;-68
2021/03/03 03:17:46;;;;;;;35.33;18.45;;;0.50;2201.60;;;;;;5080209;28;20031;-69
2021/03/03 03:20:15;;;;;;;34.92;18.20;;;0.50;2201.60;;;;;;5080337;28;20028;-68
2021/03/03 03:22:41;;;;;;;37.85;17.83;;;0.60;2201.60;;;;;;5080503;28;20021;-68
2021/03/03 03:25:08;;;;;;;32.70;16.95;;;0.80;2201.60;;;;;;5079655;28;20452;-68
2021/03/03 03:27:34;;;;;;;36.20;16.42;;;0.90;2201.60;;;;;;5080353;28;20056;-68
2021/03/03 03:30:00;;;;;;;40.38;17.45;;;25.60;2201.60;;;;;;5080184;28;20029;-70
2021/03/03 03:32:27;;;;;;;35.05;18.30;;;25.60;2201.60;;;;;;5079548;28;20074;-69
2021/03/03 03:34:54;;;;;;;35.35;17.67;;;25.70;2201.60;;;;;;5079620;28;20031;-70
2021/03/03 03:37:22;;;;;;;36.20;18.02;;;25.70;2201.60;;;;;;5079972;28;20029;-69
2021/03/03 03:39:48;;;;;;;33.65;17.90;;;25.70;2201.60;;;;;;5079972;28;20107;-70
2021/03/03 03:42:17;;;;;;;36.85;17.33;;;25.60;2201.60;;;;;;5079348;28;20477;-70
2021/03/03 03:44:44;;;;;;;;;;;25.60;2201.60;;;;;;5079612;28;20028;-70
2021/03/03 03:47:14;;;;;;;38.90;14.75;;;25.60;2201.60;;;;;;5079719;28;20308;-70
2021/03/03 03:49:40;;;;;;;34.65;15.15;;;25.60;2201.60;;;;;;5079608;28;20143;-70
2021/03/03 03:52:07;;;;;;;28.30;13.95;;;25.60;2201.60;;;;;;5079339;28;20028;-70
2021/03/03 03:54:32;;;;;;;30.15;14.63;;;25.60;2201.60;;;;;;5079828;28;20321;-70
2021/03/03 03:56:58;;;;;;;29.48;14.32;;;25.70;2201.60;;;;;;5079348;28;20032;-70
2021/03/03 03:59:24;;;;;;;32.05;14.77;;;25.80;2201.60;;;;;;5079222;28;20020;-70
2021/03/03 04:01:49;;;;;;;30.70;15.05;;;25.80;2201.60;;;;;;5079202;28;20028;-69
2021/03/03 04:04:15;;;;;;;27.17;14.05;;;25.80;2201.60;;;;;;5079313;28;20021;-70
2021/03/03 04:06:41;;;;;;;26.00;13.98;;;25.90;2201.60;;;;;;5077764;28;20429;-70
2021/03/03 04:09:07;;;;;;;32.35;16.05;;;25.90;2201.60;;;;;;5079400;28;20325;-70
2021/03/03 04:11:32;;;;;;;34.58;17.58;;;25.90;2201.60;;;;;;5082185;28;20444;-70
2021/03/03 04:13:58;;;;;;;35.20;17.33;;;25.90;2201.60;;;;;;5098992;28;20037;-70
2021/03/03 04:16:24;;;;;;;48.95;30.02;;;26.00;2201.60;;;;;;5099344;28;20024;-70
2021/03/03 04:18:49;;;;;;;39.65;21.70;;;25.90;2201.60;;;;;;5096890;28;20029;-70
2021/03/03 04:21:15;;;;;;;33.15;16.08;;;26.10;2201.60;;;;;;5087341;28;20357;-70
2021/03/03 04:23:41;;;;;;;32.92;15.13;;;25.90;2201.60;;;;;;5079102;28;20033;-70
2021/03/03 04:26:07;;;;;;;32.38;15.20;;;25.70;2201.60;;;;;;5078344;28;20029;-71
2021/03/03 04:28:32;;;;;;;34.10;16.23;;;25.60;2201.60;;;;;;5078686;28;20028;-70
2021/03/03 04:30:58;;;;;;;32.33;17.33;;;0.80;2201.60;;;;;;5079361;28;20189;-70
2021/03/03 04:33:24;;;;;;;35.50;17.65;;;0.70;2201.60;;;;;;5078681;28;20431;-70
2021/03/03 04:35:50;;;;;;;34.90;17.52;;;0.70;2201.60;;;;;;5077907;28;20024;-70
2021/03/03 04:38:15;;;;;;;42.55;17.42;;;0.60;2201.60;;;;;;5079000;28;20035;-69
2021/03/03 04:40:41;;;;;;;39.17;19.67;;;0.50;2201.60;;;;;;5078737;28;20032;-70
2021/03/03 04:43:07;;;;;;;45.33;22.25;;;0.30;2201.60;;;;;;5078020;28;20032;-71
2021/03/03 04:45:33;;;;;;;42.35;20.52;;;0.10;2201.60;;;;;;5078945;28;20098;-71
2021/03/03 04:47:59;;;;;;;45.55;19.95;;;12.90;2201.60;;;;;;5078089;28;20107;-70
2021/03/03 04:50:24;;;;;;;45.08;19.58;;;12.90;2201.60;;;;;;5083008;28;20052;-70
2021/03/03 04:52:50;;;;;;;50.70;20.10;;;13.00;2201.60;;;;;;5087656;28;20394;-70
2021/03/03 04:55:16;;;;;;;44.90;19.92;;;13.00;2201.60;;;;;;5084787;28;20020;-70
2021/03/03 04:57:42;;;;;;;48.53;19.20;;;12.90;2201.60;;;;;;5078649;28;20043;-70
2021/03/03 05:00:08;;;;;;;39.67;19.52;;;12.90;2201.60;;;;;;5078181;28;20039;-71
2021/03/03 05:02:34;;;;;;;45.10;24.23;;;0.00;2201.60;;;;;;5078379;28;20069;-70
2021/03/03 05:05:00;;;;;;;39.65;20.08;;;0.00;2201.60;;;;;;5078058;28;20103;-70
2021/03/03 05:07:26;;;;;;;38.55;18.58;;;0.20;2201.60;;;;;;5089317;28;20112;-70
2021/03/03 05:09:51;;;;;;;32.45;16.30;;;0.30;2201.60;;;;;;5086021;28;20035;-70
2021/03/03 05:12:17;;;;;;;32.33;14.80;;;0.50;2201.60;;;;;;5088783;28;20020;-70
2021/03/03 05:14:43;;;;;;;29.38;14.77;;;0.60;2201.60;;;;;;5090389;28;20080;-70
2021/03/03 05:17:09;;;;;;;32.97;18.08;;;0.70;2201.60;;;;;;5097349;28;20107;-70
2021/03/03 05:19:34;;;;;;;41.00;20.60;;;0.80;2201.60;;;;;;5098057;28;20104;-70
2021/03/03 05:22:00;;;;;;;52.78;27.23;;;0.80;2201.60;;;;;;5098665;28;20045;-69
2021/03/03 05:24:26;;;;;;;47.83;23.42;;;0.80;2201.60;;;;;;5097945;28;20028;-69
2021/03/03 05:26:52;;;;;;;45.13;21.75;;;0.80;2201.60;;;;;;5097756;28;20055;-70
2021/03/03 05:29:18;;;;;;;43.50;21.55;;;25.60;2201.60;;;;;;5098247;28;20024;-70
2021/03/03 05:31:43;;;;;;;39.67;18.63;;;25.60;2201.60;;;;;;5097787;28;20039;-70
2021/03/03 05:34:09;;;;;;;29.95;16.27;;;25.60;2201.60;;;;;;5097512;28;20101;-71
2021/03/03 05:36:35;;;;;;;32.13;16.85;;;25.70;2201.60;;;;;;5086385;28;20028;-69
2021/03/03 05:39:01;;;;;;;41.95;17.60;;;25.80;2201.60;;;;;;5077357;28;20028;-70
2021/03/03 05:41:27;;;;;;;52.75;24.90;;;25.80;2201.60;;;;;;5077435;28;20059;-70
2021/03/03 05:43:54;;;;;;;36.65;18.75;;;25.80;2201.60;;;;;;5076893;28;20493;-70
2021/03/03 05:46:20;;;;;;;36.45;17.08;;;25.90;2201.60;;;;;;5077409;28;20032;-70
2021/03/03 05:48:49;;;;;;;34.22;17.67;;;26.00;2201.60;;;;;;5088891;28;20032;-70
2021/03/03 05:51:15;;;;;;;41.72;20.25;;;26.00;2201.60;;;;;;5097708;28;20091;-70
2021/03/03 05:53:41;;;;;;;46.33;21.95;;;26.10;2201.60;;;;;;5094179;28;20032;-69
2021/03/03 05:56:09;;;;;;;45.33;21.92;;;26.20;2201.60;;;;;;5097946;28;20032;-70
2021/03/03 05:58:38;;;;;;;34.65;17.92;;;26.30;2201.60;;;;;;5097350;28;20425;-70
2021/03/03 06:01:06;;;;;;;33.25;18.00;;;26.40;2201.60;;;;;;5094136;28;20115;-70
2021/03/03 06:03:32;;;;;;;42.50;19.48;;;26.30;2201.60;;;;;;5076741;28;20039;-70
2021/03/03 06:05:58;;;;;;;43.63;18.85;;;26.40;2201.60;;;;;;5076972;28;20051;-70
2021/03/03 06:08:29;;;;;;;35.55;18.23;;;26.50;2201.60;;;;;;5075971;28;20052;-69
2021/03/03 06:10:56;;;;;;;33.88;18.23;;;51.20;2227.20;;;;;;5076117;28;20481;-70
2021/03/03 06:13:22;;;;;;;38.65;17.90;;;51.30;2227.20;;;;;;5075641;28;20060;-70
2021/03/03 06:15:49;;;;;;;38.25;19.98;;;51.50;2227.20;;;;;;5076964;28;20127;-70
2021/03/03 06:18:16;;;;;;;41.28;19.35;;;51.50;2227.20;;;;;;5076896;28;20111;-70
2021/03/03 06:20:44;;;;;;;42.22;21.92;;;51.40;2227.20;;;;;;5076636;28;20064;-70
2021/03/03 06:23:27;;;;;;;41.42;21.42;;;51.30;2227.20;;;;;;5077465;28;20414;-71
2021/03/03 06:25:56;;;;;;;62.80;31.20;;;51.30;2227.20;;;;;;5076924;28;20032;-70
2021/03/03 06:28:41;;;;;;;53.67;27.58;;;51.40;2227.20;;;;;;5076756;28;20093;-70
2021/03/03 06:31:37;;;;;;;44.55;22.92;;;51.50;2227.20;;;;;;5080269;28;20036;-70
2021/03/03 06:34:22;;;;;;;44.28;25.13;;;51.70;2227.20;;;;;;5080811;28;20032;-70
2021/03/03 06:36:55;;;;;;;55.72;30.88;;;51.80;2227.20;;;;;;5080658;28;20056;-70
2021/03/03 06:39:26;;;;;;;107.65;54.10;;;52.00;2227.20;;;;;;5081419;28;20028;-70
2021/03/03 06:41:57;;;;;;;335.30;156.88;;;76.80;2227.20;;;;;;5081076;28;20028;-69
2021/03/03 06:44:23;;;;;;;498.42;277.52;;;76.90;2227.20;;;;;;5081119;28;20021;-70
2021/03/03 06:47:04;;;;;;;100.63;53.10;;;77.10;2227.20;;;;;;5081003;28;20028;-67
2021/03/03 06:49:30;;;;;;;84.70;43.35;;;77.30;2227.20;;;;;;5080604;28;20053;-68
2021/03/03 06:51:56;;;;;;;215.05;104.65;;;77.40;2227.20;;;;;;5081139;28;20036;-68
2021/03/03 06:54:24;;;;;;;61.25;36.13;;;77.60;2227.20;;;;;;5080514;28;20024;-68
2021/03/03 06:56:52;;;;;;;57.30;33.90;;;77.70;2227.20;;;;;;5080452;28;20346;-68
2021/03/03 06:59:23;;;;;;;92.03;51.90;;;102.40;2227.20;;;;;;5080136;28;20051;-68
2021/03/03 07:01:57;;;;;;;61.45;34.03;;;102.60;2227.20;;;;;;5080587;28;20024;-68
2021/03/03 07:04:27;;;;;;;42.95;23.73;;;102.80;2227.20;;;;;;5080661;28;20025;-68
2021/03/03 07:06:54;;;;;;;36.45;21.05;;;102.90;2227.20;;;;;;5080535;28;20024;-68
2021/03/03 07:09:21;;;;;;;42.45;24.17;;;103.10;2227.20;;;;;;5080371;28;20028;-68
2021/03/03 07:11:48;;;;;;;39.63;22.02;;;103.10;2227.20;;;;;;5080307;28;20043;-68
2021/03/03 07:14:19;;;;;;;47.83;23.25;;;103.20;2227.20;;;;;;5080408;28;20417;-67
2021/03/03 07:17:04;;;;;;;43.20;23.52;;;103.30;2227.20;;;;;;5079070;28;20311;-68
2021/03/03 07:19:30;;;;;;;52.70;24.75;;;103.30;2227.20;;;;;;5079101;28;20311;-68
2021/03/03 07:21:56;;;;;;;55.83;26.85;;;128.10;2252.80;;;;;;5079080;28;20089;-68
2021/03/03 07:24:24;;;;;;;55.25;24.20;;;128.20;2252.80;;;;;;5079717;28;20024;-68
2021/03/03 07:26:50;;;;;;;63.65;34.67;;;128.20;2252.80;;;;;;5080503;28;20043;-67
2021/03/03 07:29:17;;;;;;;63.22;32.70;;;128.30;2252.80;;;;;;5079473;28;20023;-68
2021/03/03 07:31:43;;;;;;;71.03;43.15;;;128.40;2252.80;;;;;;5079752;28;20036;-69
2021/03/03 07:34:09;;;;;;;56.10;24.83;;;128.50;2252.80;;;;;;5080157;28;20020;-69
2021/03/03 07:36:36;;;;;;;61.70;30.27;;;128.60;2252.80;;;;;;5079156;28;20066;-68
2021/03/03 07:39:08;;;;;;;48.10;25.48;;;128.60;2252.80;;;;;;5079665;28;20028;-68
2021/03/03 07:41:42;;;;;;;50.13;24.52;;;128.70;2252.80;;;;;;5079861;28;20024;-68
2021/03/03 07:44:09;;;;;;;49.00;23.63;;;128.80;2252.80;;;;;;5079569;28;20035;-68
2021/03/03 07:46:38;;;;;;;40.60;23.50;;;128.90;2252.80;;;;;;5079752;28;20035;-69
2021/03/03 07:49:05;;;;;;;45.25;23.15;;;128.90;2252.80;;;;;;5079637;28;20357;-69
2021/03/03 07:51:31;;;;;;;47.42;26.52;;;128.90;2252.80;;;;;;5079455;28;20414;-68
2021/03/03 07:53:57;;;;;;;51.55;25.35;;;153.60;2252.80;;;;;;5079530;28;20027;-69
2021/03/03 07:56:24;;;;;;;45.38;25.25;;;153.80;2252.80;;;;;;5079654;28;20035;-68
2021/03/03 07:58:50;;;;;;;43.63;24.83;;;154.00;2252.80;;;;;;5078996;28;20029;-68
2021/03/03 08:01:16;;;;;;;43.10;24.38;;;154.00;2252.80;;;;;;5079260;28;20028;-68
2021/03/03 08:03:44;;;;;;;44.47;22.65;;;154.10;2252.80;;;;;;5079389;28;20028;-68
2021/03/03 08:06:31;;;;;;;49.10;24.80;;;154.20;2252.80;;;;;;5079421;28;20020;-67
2021/03/03 08:09:06;;;;;;;53.08;24.23;;;154.30;2252.80;;;;;;5078317;28;20067;-68
2021/03/03 08:11:37;;;;;;;52.95;23.33;;;154.40;2252.80;;;;;;5078646;28;20068;-68
2021/03/03 08:14:23;;;;;;;40.72;22.60;;;154.50;2252.80;;;;;;5079142;28;20024;-68
2021/03/03 08:16:57;;;;;;;37.72;22.45;;;179.30;2252.80;;;;;;5079173;28;20052;-69
2021/03/03 08:19:42;;;;;;;44.97;23.27;;;179.40;2252.80;;;;;;5079209;28;20025;-68
2021/03/03 08:22:08;;;;;;;51.33;23.80;;;179.50;2252.80;;;;;;5078688;28;20029;-69
2021/03/03 08:24:38;;;;;;;36.55;20.80;;;179.70;2252.80;;;;;;5077936;28;20555;-68
2021/03/03 08:27:29;;;;;;;37.28;21.55;;;179.80;2252.80;;;;;;5078432;28;20020;-69
2021/03/03 08:30:15;;;;;;;42.65;20.88;;;179.90;2252.80;;;;;;5077578;28;20089;-68
2021/03/03 08:32:42;;;;;;;41.95;20.30;;;180.00;2252.80;;;;;;5078957;28;20052;-67
2021/03/03 08:35:09;;;;;;;34.30;19.45;;;204.80;2252.80;;;;;;5078219;28;20372;-69
2021/03/03 08:37:37;;;;;;;31.23;18.50;;;205.00;2252.80;;;;;;5078089;28;20051;-69
2021/03/03 08:40:22;;;;;;;33.40;19.07;;;205.10;2252.80;;;;;;5078545;28;20032;-68
2021/03/03 08:42:48;;;;;;;30.30;17.80;;;205.30;2201.60;;;;;;5079132;28;20042;-69
2021/03/03 08:45:16;;;;;;;31.65;18.73;;;205.40;2227.20;;;;;;5078466;28;20076;-69
2021/03/03 08:47:56;;;;;;;34.35;17.95;;;205.40;2150.40;;;;;;5078383;28;20129;-68
2021/03/03 08:50:31;;;;;;;34.78;16.85;;;205.50;2176.00;;;;;;5078684;28;20079;-69
2021/03/03 08:53:18;;;;;;;29.42;16.52;;;205.60;2150.40;;;;;;5077117;28;20350;-69
2021/03/03 08:55:44;;;;;;;28.77;17.38;;;205.70;2124.80;;;;;;5078784;28;20052;-68
2021/03/03 08:58:37;;;;;;;27.02;16.17;;;205.70;2099.20;;;;;;5078534;28;20071;-69
2021/03/03 09:01:03;;;;;;;27.13;16.30;;;230.40;2073.60;;;;;;5078120;28;20024;-68
2021/03/03 09:03:30;;;;;;;35.75;20.40;;;230.40;2073.60;;;;;;5076530;28;20078;-69
2021/03/03 09:05:56;;;;;;;32.40;18.00;;;230.40;2073.60;;;;;;5077063;28;20024;-68
2021/03/03 09:08:23;;;;;;;25.27;15.35;;;230.50;2099.20;;;;;;5077301;28;20028;-69
2021/03/03 09:10:50;;;;;;;29.30;15.23;;;230.50;2022.40;;;;;;5077934;28;20115;-68
2021/03/03 09:13:25;;;;;;;36.90;16.02;;;230.70;2099.20;;;;;;5078170;28;20032;-67
2021/03/03 09:16:08;;;;;;;31.13;17.52;;;230.70;2048.00;;;;;;5077804;28;20028;-68
2021/03/03 09:18:37;;;;;;;30.83;17.50;;;230.70;2073.60;;;;;;5078253;28;20035;-68
2021/03/03 09:21:05;;;;;;;;;;;230.70;2022.40;;;;;;5078272;28;20031;-68
2021/03/03 09:23:31;;;;;;;27.95;15.40;;;230.70;2048.00;;;;;;5077684;28;19912;-69
2021/03/03 09:25:57;;;;;;;26.13;16.33;;;230.80;2022.40;;;;;;5077911;28;20372;-70
2021/03/03 09:28:52;;;;;;;28.67;16.63;;;230.90;1996.80;;;;;;5077280;28;20028;-69
2021/03/03 09:31:31;;;;;;;25.55;15.25;;;230.90;1971.20;;;;;;5068085;28;20052;-68
2021/03/03 09:33:58;;;;;;;27.25;16.33;;;230.90;1945.60;;;;;;5077376;28;20393;-68
2021/03/03 09:36:24;;;;;;;30.00;16.42;;;231.00;1945.60;;;;;;5076779;28;20024;-68
2021/03/03 09:38:58;;;;;;;30.27;17.27;;;231.10;1996.80;;;;;;5077977;28;20051;-68
2021/03/03 09:41:25;;;;;;;25.60;15.07;;;231.20;1920.00;;;;;;5077997;28;20036;-68
2021/03/03 09:44:07;;;;;;;32.08;15.60;;;231.30;1945.60;;;;;;5077380;28;20029;-69
2021/03/03 09:46:57;;;;;;;42.20;16.80;;;256.00;1971.20;;;;;;5077529;28;20016;-68
2021/03/03 09:49:30;;;;;;;28.35;16.83;;;256.20;1920.00;;;;;;5077116;28;20059;-68
2021/03/03 09:51:57;;;;;;;29.23;17.52;;;256.10;1894.40;;;;;;5077780;28;20043;-68
2021/03/03 09:54:29;;;;;;;50.40;16.52;;;256.20;1920.00;;;;;;5077241;28;20024;-72
2021/03/03 09:57:10;;;;;;;26.50;14.70;;;256.20;1894.40;;;;;;5077145;28;20024;-67
2021/03/03 09:59:42;;;;;;;29.02;16.02;;;256.20;1868.80;;;;;;5077167;28;20357;-69
2021/03/03 10:02:10;;;;;;;27.60;16.00;;;256.40;1920.00;;;;;;5077346;28;20074;-68
2021/03/03 10:04:38;;;;;;;37.75;18.27;;;256.50;1894.40;;;;;;5076053;28;20115;-68
2021/03/03 10:07:21;;;;;;;26.55;15.70;;;256.50;1843.20;;;;;;5077625;28;20035;-67
2021/03/03 10:09:49;;;;;;;32.00;17.60;;;256.50;1843.20;;;;;;5077307;28;20021;-68
2021/03/03 10:12:17;;;;;;;27.77;17.55;;;256.60;1843.20;;;;;;5078007;28;20050;-68
2021/03/03 10:15:00;;;;;;;30.80;16.63;;;256.60;1817.60;;;;;;5086456;28;20020;-67
2021/03/03 10:17:33;;;;;;;24.67;15.77;;;256.80;1868.80;;;;;;5085618;28;20034;-69
2021/03/03 10:20:00;;;;;;;34.60;16.45;;;256.80;1843.20;;;;;;5090071;28;20034;-69
2021/03/03 10:22:26;;;;;;;25.80;15.82;;;256.90;1817.60;;;;;;5095872;28;20028;-68
2021/03/03 10:25:06;;;;;;;24.40;16.42;;;256.90;1817.60;;;;;;5090403;28;20028;-69
2021/03/03 10:27:39;;;;;;;29.58;17.08;;;256.90;1843.20;;;;;;5084228;28;20070;-69
2021/03/03 10:30:26;;;;;;;30.77;17.60;;;281.60;1817.60;;;;;;5084597;28;20063;-69
2021/03/03 10:32:53;;;;;;;28.23;16.60;;;281.70;1868.80;;;;;;5085294;28;20024;-66
2021/03/03 10:35:23;;;;;;;25.90;15.45;;;281.70;1792.00;;;;;;5084965;28;20102;-69
2021/03/03 10:37:51;;;;;;;27.83;16.25;;;281.70;1792.00;;;;;;5084671;28;20025;-68
2021/03/03 10:40:18;;;;;;;28.27;16.30;;;281.90;1766.40;;;;;;5085028;28;20028;-67
2021/03/03 10:42:44;;;;;;;27.50;16.20;;;282.10;1792.00;;;;;;5086307;28;20031;-67
2021/03/03 10:45:24;;;;;;;28.90;14.90;;;282.10;1766.40;;;;;;5085154;28;20024;-68
2021/03/03 10:47:50;;;;;;;25.38;15.38;;;282.10;1792.00;;;;;;5079618;28;20066;-69
2021/03/03 10:50:19;;;;;;;27.38;14.73;;;282.20;1766.40;;;;;;5084214;28;20044;-70
2021/03/03 10:53:03;;;;;;;24.23;15.07;;;282.20;1740.80;;;;;;5094172;28;20024;-69
2021/03/03 10:55:46;;;;;;;24.35;15.15;;;282.30;1766.40;;;;;;5087559;28;20241;-68
2021/03/03 10:58:14;;;;;;;24.15;14.55;;;307.20;1740.80;;;;;;5089895;28;20349;-67
2021/03/03 11:00:53;;;;;;;36.72;16.80;;;307.20;1740.80;;;;;;5094430;28;20066;-67
2021/03/03 11:03:18;;;;;;;21.70;14.32;;;307.30;1740.80;;;;;;5092776;28;20499;-68
2021/03/03 11:05:48;;;;;;;25.38;13.90;;;307.50;1715.20;;;;;;5086689;28;20143;-67
2021/03/03 11:08:14;;;;;;;22.40;14.13;;;307.60;1689.60;;;;;;5093773;28;20087;-68
2021/03/03 11:10:40;;;;;;;21.95;13.75;;;307.80;1715.20;;;;;;5096312;28;20027;-66
2021/03/03 11:13:05;;;;;;;27.38;14.00;;;307.80;1689.60;;;;;;5090379;28;20384;-68
2021/03/03 11:15:31;;;;;;;23.52;15.10;;;307.80;1664.00;;;;;;5079264;28;20119;-68
2021/03/03 11:17:57;;;;;;;22.58;14.52;;;308.00;1664.00;;;;;;5080206;28;20366;-67
2021/03/03 11:20:22;;;;;;;21.25;13.57;;;332.80;1689.60;;;;;;5090531;28;20063;-67
2021/03/03 11:22:48;;;;;;;28.63;14.98;;;333.00;1612.80;;;;;;5092337;28;20176;-67
2021/03/03 11:25:15;;;;;;;28.80;13.98;;;333.20;1612.80;;;;;;5091036;28;20020;-66
2021/03/03 11:27:40;;;;;;;23.05;14.73;;;333.40;1638.40;;;;;;5096197;28;20031;-67
2021/03/03 11:30:07;;;;;;;20.83;13.05;;;333.60;1587.20;;;;;;5098425;28;20027;-69
2021/03/03 11:32:33;;;;;;;25.08;13.57;;;333.70;1561.60;;;;;;5098740;28;20020;-67
2021/03/03 11:34:59;;;;;;;21.88;11.88;;;358.50;1536.00;;;;;;5098112;28;20307;-68
2021/03/03 11:37:24;;;;;;;22.63;13.63;;;358.50;1484.80;;;;;;5094639;28;20023;-68
2021/03/03 11:39:53;;;;;;;19.52;12.88;;;358.60;1536.00;;;;;;5093107;28;20130;-67
2021/03/03 11:42:19;;;;;;;21.70;13.15;;;358.80;1510.40;;;;;;5090700;28;20028;-68
2021/03/03 11:44:45;;;;;;;23.17;13.30;;;358.70;1510.40;;;;;;5091043;28;20444;-67
2021/03/03 11:47:11;;;;;;;32.00;13.50;;;358.80;1510.40;;;;;;5093052;28;20054;-68
2021/03/03 11:49:37;;;;;;;21.65;13.70;;;359.00;1459.20;;;;;;5088403;28;20052;-68
2021/03/03 11:52:03;;;;;;;21.05;12.35;;;359.20;1459.20;;;;;;5090479;28;20024;-68
2021/03/03 11:54:29;;;;;;;21.25;12.82;;;384.50;1433.60;;;;;;5089450;28;20024;-68
2021/03/03 11:56:55;;;;;;;21.13;13.48;;;384.70;1382.40;;;;;;5092643;28;20026;-67
2021/03/03 11:59:20;;;;;;;24.83;13.75;;;384.90;1382.40;;;;;;5090563;28;20089;-68
2021/03/03 12:01:52;;;;;;;18.10;12.20;;;409.60;1408.00;;;;;;5085845;28;20451;-72
2021/03/03 12:04:21;;;;;;;20.05;12.85;;;410.00;1382.40;;;;;;5087128;28;20028;-69
2021/03/03 12:06:47;;;;;;;21.15;11.90;;;410.50;1356.80;;;;;;5086088;28;20414;-68
2021/03/03 12:09:13;;;;;;;20.55;12.05;;;436.10;1305.60;;;;;;5086311;28;20093;-68
2021/03/03 12:11:38;;;;;;;20.50;11.15;;;563.60;1126.40;;;;;;5086871;28;20118;-68
2021/03/03 12:14:04;;;;;;;21.23;11.68;;;666.20;947.20;;;;;;5080843;28;20020;-70